Time;durP1;ratioP1;P1;durP2;ratioP2;P2;SDS_P1;SDS_P2;PMS_P1;PMS_P2;Temp;Humidity;BMP_temperature;BMP_pressure;BME280_temperature;BME280_humidity;BME280_pressure;Samples;Min_cycle;Max_cycle;Signal;HPM_P1;HPM_P2
2023/10/08 00:00:42;;;;;;;4.00;0.43;;;13.00;99.90;;;;;;6239230;23;20009;-93
2023/10/08 00:02:52;;;;;;;1.45;0.50;;;13.00;99.90;;;;;;6264402;23;20450;-93
2023/10/08 00:05:21;;;;;;;1.73;0.45;;;13.00;99.90;;;;;;6239761;23;20647;-93
2023/10/08 00:07:48;;;;;;;0.95;0.50;;;13.00;99.90;;;;;;6239322;23;20095;-92
2023/10/08 00:10:15;;;;;;;1.10;0.40;;;13.00;99.90;;;;;;6239585;23;20043;-92
2023/10/08 00:12:42;;;;;;;1.92;0.60;;;13.00;99.90;;;;;;6239140;23;20039;-93
2023/10/08 00:15:10;;;;;;;1.05;0.40;;;13.00;99.90;;;;;;6264077;23;20016;-93
2023/10/08 00:17:37;;;;;;;1.70;0.35;;;13.10;99.90;;;;;;6269734;22;20070;-93
2023/10/08 00:20:04;;;;;;;2.15;0.85;;;13.00;99.90;;;;;;6269585;22;20012;-93
2023/10/08 00:22:35;;;;;;;1.20;0.40;;;13.00;99.90;;;;;;6269844;22;20012;-93
2023/10/08 00:25:11;;;;;;;2.25;0.52;;;13.10;99.90;;;;;;6269950;22;20016;-93
2023/10/08 00:27:38;;;;;;;2.55;0.50;;;13.10;99.90;;;;;;6270034;22;20023;-92
2023/10/08 00:30:17;;;;;;;0.88;0.38;;;13.10;99.90;;;;;;6269245;22;20023;-93
2023/10/08 00:32:44;;;;;;;0.95;0.50;;;13.10;99.90;;;;;;6270105;22;20085;-92
2023/10/08 00:35:13;;;;;;;2.83;0.50;;;13.10;99.90;;;;;;6269747;22;20342;-93
2023/10/08 00:37:40;;;;;;;2.45;0.68;;;13.10;99.90;;;;;;6270240;22;20007;-93
2023/10/08 00:40:21;;;;;;;2.17;0.60;;;13.20;99.90;;;;;;6269553;22;20074;-93
2023/10/08 00:42:50;;;;;;;1.48;0.60;;;13.10;99.90;;;;;;6269366;22;20016;-93
2023/10/08 00:45:19;;;;;;;1.30;0.60;;;13.10;99.90;;;;;;6269825;22;20073;-94
2023/10/08 00:47:47;;;;;;;1.73;0.60;;;13.00;99.90;;;;;;6269754;22;20468;-93
2023/10/08 00:50:32;;;;;;;1.67;0.60;;;13.10;99.90;;;;;;6269627;22;20012;-94
2023/10/08 00:53:09;;;;;;;0.90;0.70;;;13.10;99.90;;;;;;6270171;22;20047;-93
2023/10/08 00:55:37;;;;;;;1.73;0.50;;;13.10;99.90;;;;;;6270161;22;20011;-93
2023/10/08 00:58:23;;;;;;;0.93;0.50;;;13.10;99.90;;;;;;6269274;22;20037;-93
2023/10/08 01:00:56;;;;;;;3.63;0.85;;;13.10;99.90;;;;;;6269866;22;20012;-93
2023/10/08 01:03:26;;;;;;;3.70;0.90;;;13.10;99.90;;;;;;6269120;22;20069;-94
2023/10/08 01:05:57;;;;;;;1.15;0.60;;;13.20;99.90;;;;;;6269382;22;20017;-92
2023/10/08 01:08:36;;;;;;;2.30;0.63;;;13.10;99.90;;;;;;6270144;22;20098;-93
2023/10/08 01:11:36;;;;;;;2.47;0.80;;;13.10;99.90;;;;;;6269233;22;20050;-93
2023/10/08 01:14:07;;;;;;;3.42;0.85;;;13.10;99.90;;;;;;6269837;22;20211;-93
2023/10/08 01:16:34;;;;;;;0.93;0.50;;;13.10;99.90;;;;;;6269540;22;20012;-94
2023/10/08 01:19:02;;;;;;;2.35;0.60;;;13.20;99.90;;;;;;6269964;22;20092;-94
2023/10/08 01:21:33;;;;;;;3.10;0.70;;;13.10;99.90;;;;;;6269485;22;20011;-93
2023/10/08 01:24:07;;;;;;;2.15;0.70;;;13.10;99.90;;;;;;6269452;22;20074;-93
2023/10/08 01:26:38;;;;;;;3.00;0.70;;;13.10;99.90;;;;;;6268764;22;20472;-93
2023/10/08 01:29:11;;;;;;;4.05;0.82;;;13.10;99.90;;;;;;6269633;22;20015;-92
2023/10/08 01:31:38;;;;;;;2.05;0.70;;;13.10;99.90;;;;;;6269025;22;20454;-93
2023/10/08 01:34:04;;;;;;;1.63;0.80;;;13.00;99.90;;;;;;6269404;22;20043;-93
2023/10/08 01:36:31;;;;;;;3.72;0.85;;;13.10;99.90;;;;;;6269532;22;20086;-93
2023/10/08 01:38:58;;;;;;;2.55;0.70;;;13.00;99.90;;;;;;6269308;22;20023;-93
2023/10/08 01:41:30;;;;;;;1.65;0.65;;;13.00;99.90;;;;;;6268586;22;20019;-93
2023/10/08 01:43:58;;;;;;;5.45;0.80;;;13.00;99.90;;;;;;6269293;22;20011;-93
2023/10/08 01:46:26;;;;;;;4.57;0.93;;;13.10;99.90;;;;;;6269793;22;20012;-92
2023/10/08 01:49:03;;;;;;;4.95;0.82;;;13.10;99.90;;;;;;6269158;22;20519;-92
2023/10/08 01:51:46;;;;;;;3.38;0.95;;;13.10;99.90;;;;;;6268900;22;20011;-94
2023/10/08 01:54:14;;;;;;;1.85;0.70;;;13.10;99.90;;;;;;6269225;22;20378;-93
2023/10/08 01:56:41;;;;;;;2.65;0.80;;;13.00;99.90;;;;;;6268934;22;20460;-93
2023/10/08 01:59:15;;;;;;;4.88;0.80;;;13.00;99.90;;;;;;6268858;22;20051;-93
2023/10/08 02:01:45;;;;;;;2.80;0.80;;;13.10;99.90;;;;;;6268971;22;20058;-93
2023/10/08 02:04:12;;;;;;;2.72;0.80;;;13.10;99.90;;;;;;6268790;22;20074;-92
2023/10/08 02:06:42;;;;;;;2.35;0.70;;;13.10;99.90;;;;;;6268939;22;20012;-93
2023/10/08 02:09:09;;;;;;;2.70;0.68;;;13.00;99.90;;;;;;6269048;22;20011;-92
2023/10/08 02:11:53;;;;;;;3.13;0.82;;;13.10;99.90;;;;;;6268503;22;20073;-92
2023/10/08 02:14:20;;;;;;;1.65;0.60;;;13.10;99.90;;;;;;6263439;23;20043;-91
2023/10/08 02:16:48;;;;;;;2.63;0.80;;;13.10;99.90;;;;;;6264259;22;20083;-93
2023/10/08 02:19:23;;;;;;;3.00;0.82;;;13.10;99.90;;;;;;6293587;22;20019;-92
2023/10/08 02:21:50;;;;;;;2.40;0.55;;;13.10;99.90;;;;;;6294528;22;20022;-92
2023/10/08 02:24:17;;;;;;;1.92;0.70;;;13.10;99.90;;;;;;6293826;22;20350;-92
2023/10/08 02:26:43;;;;;;;3.00;0.65;;;13.10;99.90;;;;;;6294053;22;20012;-92
2023/10/08 02:29:10;;;;;;;2.08;0.52;;;13.10;99.90;;;;;;6294710;22;20105;-93
2023/10/08 02:31:41;;;;;;;4.97;0.68;;;13.10;99.90;;;;;;6293800;22;20015;-92
2023/10/08 02:34:08;;;;;;;4.68;0.80;;;13.10;99.90;;;;;;6294177;22;20016;-93
2023/10/08 02:36:42;;;;;;;5.97;0.80;;;13.10;99.90;;;;;;6294073;22;20015;-93
2023/10/08 02:39:25;;;;;;;5.97;0.90;;;13.10;99.90;;;;;;6293719;22;20012;-92
2023/10/08 02:41:54;;;;;;;1.98;0.70;;;13.10;99.90;;;;;;6293477;22;20015;-91
2023/10/08 02:44:20;;;;;;;2.50;0.70;;;13.10;99.90;;;;;;6293820;22;20073;-92
2023/10/08 02:46:48;;;;;;;2.10;0.70;;;13.10;99.90;;;;;;6293937;22;20028;-92
2023/10/08 02:49:22;;;;;;;1.55;0.63;;;13.10;99.90;;;;;;6293685;22;20042;-91
2023/10/08 02:51:52;;;;;;;2.05;0.70;;;13.10;99.90;;;;;;6293662;22;20022;-92
2023/10/08 02:54:20;;;;;;;2.08;0.73;;;13.10;99.90;;;;;;6293206;22;20012;-92
2023/10/08 02:56:51;;;;;;;8.90;1.00;;;13.10;99.90;;;;;;6293790;22;20011;-90
2023/10/08 02:59:22;;;;;;;3.58;0.90;;;13.10;99.90;;;;;;6293704;22;20022;-92
2023/10/08 03:01:49;;;;;;;2.40;0.65;;;13.10;99.90;;;;;;6294062;22;20065;-92
2023/10/08 03:04:19;;;;;;;5.78;1.30;;;13.10;99.90;;;;;;6293748;22;20345;-92
2023/10/08 03:06:55;;;;;;;2.85;0.93;;;13.10;99.90;;;;;;6294021;22;20342;-92
2023/10/08 03:09:31;;;;;;;3.25;0.77;;;13.10;99.90;;;;;;6293590;22;20011;-92
2023/10/08 03:11:58;;;;;;;6.68;1.00;;;13.10;99.90;;;;;;6293545;22;20051;-92
2023/10/08 03:14:41;;;;;;;5.43;0.82;;;13.10;99.90;;;;;;6293676;22;20023;-92
2023/10/08 03:17:08;;;;;;;4.95;0.98;;;13.10;99.90;;;;;;6293519;22;20016;-92
2023/10/08 03:19:36;;;;;;;3.05;0.93;;;13.10;99.90;;;;;;6293690;22;20011;-92
2023/10/08 03:22:04;;;;;;;3.65;0.98;;;13.10;99.90;;;;;;6293468;22;20011;-92
2023/10/08 03:24:41;;;;;;;4.97;0.80;;;13.00;99.90;;;;;;6293518;22;20016;-91
2023/10/08 03:27:20;;;;;;;4.68;0.90;;;13.00;99.90;;;;;;6319713;22;20019;-88
2023/10/08 03:29:47;;;;;;;5.53;0.88;;;13.00;99.90;;;;;;6296034;22;20341;-88
2023/10/08 03:32:17;;;;;;;4.10;1.08;;;13.10;99.90;;;;;;6295667;22;20015;-87
2023/10/08 03:34:46;;;;;;;3.35;0.90;;;13.00;99.90;;;;;;6295544;22;20047;-87
2023/10/08 03:37:21;;;;;;;4.50;0.68;;;13.00;99.90;;;;;;6295326;22;20439;-88
2023/10/08 03:39:52;;;;;;;3.20;1.00;;;13.00;99.90;;;;;;6295339;22;20070;-87
2023/10/08 03:42:23;;;;;;;4.03;0.82;;;13.00;99.90;;;;;;6295744;22;20022;-87
2023/10/08 03:44:55;;;;;;;4.55;0.98;;;13.00;99.90;;;;;;6295388;22;20018;-87
2023/10/08 03:47:22;;;;;;;3.25;0.80;;;13.00;99.90;;;;;;6295386;22;20104;-87
2023/10/08 03:49:51;;;;;;;7.25;1.15;;;13.00;99.90;;;;;;6295654;22;20019;-87
2023/10/08 03:52:25;;;;;;;6.90;1.25;;;13.00;99.90;;;;;;6294588;22;20023;-87
2023/10/08 03:55:21;;;;;;;3.28;0.93;;;13.00;99.90;;;;;;6295607;22;20069;-87
2023/10/08 03:57:49;;;;;;;3.93;0.80;;;13.00;99.90;;;;;;6295645;22;20015;-87
2023/10/08 04:00:28;;;;;;;11.68;0.90;;;13.00;99.90;;;;;;6295290;22;20015;-88
2023/10/08 04:03:00;;;;;;;3.72;0.85;;;13.10;99.90;;;;;;6295118;22;20404;-87
2023/10/08 04:05:44;;;;;;;3.38;0.80;;;13.10;99.90;;;;;;6295223;22;20016;-87
2023/10/08 04:08:17;;;;;;;3.78;0.75;;;13.10;99.90;;;;;;6295458;22;20130;-87
2023/10/08 04:13:14;;;;;;;4.35;1.00;;;13.30;99.90;;;;;;6320516;22;20126;-87
2023/10/08 04:15:42;;;;;;;4.57;0.77;;;13.00;99.90;;;;;;6295515;22;20022;-88
2023/10/08 04:18:11;;;;;;;2.78;1.08;;;13.00;99.90;;;;;;6295265;22;20798;-87
2023/10/08 04:23:17;;;;;;;5.30;1.00;;;13.00;99.90;;;;;;6320586;22;20016;-87
2023/10/08 04:25:44;;;;;;;7.05;1.00;;;13.00;99.90;;;;;;6294847;22;20012;-87
2023/10/08 04:28:17;;;;;;;4.32;0.93;;;13.00;99.90;;;;;;6295223;22;20065;-87
2023/10/08 04:30:45;;;;;;;5.30;1.20;;;13.00;99.90;;;;;;6294915;22;20012;-87
2023/10/08 04:33:14;;;;;;;3.67;0.85;;;13.00;99.90;;;;;;6295017;22;20038;-87
2023/10/08 04:35:48;;;;;;;8.95;1.23;;;13.00;99.90;;;;;;6294374;22;20008;-87
2023/10/08 04:38:18;;;;;;;3.92;1.00;;;13.00;99.90;;;;;;6295095;22;20050;-87
2023/10/08 04:40:48;;;;;;;5.53;0.88;;;13.00;99.90;;;;;;6294260;22;20484;-87
2023/10/08 04:43:22;;;;;;;2.95;0.82;;;13.00;99.90;;;;;;6294324;22;20880;-87
2023/10/08 04:45:49;;;;;;;4.60;0.85;;;13.00;99.90;;;;;;6294266;22;20041;-87
2023/10/08 04:48:20;;;;;;;4.65;0.90;;;13.00;99.90;;;;;;6294713;22;20012;-87
2023/10/08 04:50:58;;;;;;;8.10;1.08;;;13.00;99.90;;;;;;6294133;22;20086;-87
2023/10/08 04:53:31;;;;;;;4.22;0.82;;;13.00;99.90;;;;;;6294221;22;20012;-87
2023/10/08 04:56:05;;;;;;;4.35;0.90;;;13.00;99.90;;;;;;6294480;22;20099;-87
2023/10/08 04:58:36;;;;;;;4.25;1.00;;;13.00;99.90;;;;;;6294908;22;20438;-87
2023/10/08 05:12:10;;;;;;;4.60;1.00;;;13.00;99.90;;;;;;6321487;22;20512;-87
2023/10/08 05:14:55;;;;;;;8.05;1.20;;;13.00;99.90;;;;;;6294530;22;20019;-87
2023/10/08 05:17:22;;;;;;;4.22;0.95;;;12.90;99.90;;;;;;6294186;22;20342;-87
2023/10/08 05:52:50;;;;;;;3.67;0.90;;;12.70;99.90;;;;;;6289222;22;20027;-86
2023/10/08 05:55:25;;;;;;;3.95;0.95;;;12.70;99.90;;;;;;6263123;23;20008;-86
2023/10/08 05:58:24;;;;;;;5.68;1.10;;;12.60;99.90;;;;;;6237685;23;20008;-87
2023/10/08 06:01:25;;;;;;;4.30;1.08;;;12.60;99.90;;;;;;6237545;23;20023;-87
2023/10/08 06:07:12;;;;;;;3.58;1.00;;;12.70;99.90;;;;;;6289819;23;20086;-87
2023/10/08 06:09:40;;;;;;;5.80;0.90;;;12.70;99.90;;;;;;6238127;23;20012;-86
2023/10/08 06:12:09;;;;;;;3.47;1.10;;;12.70;99.90;;;;;;6238023;23;20016;-88
2023/10/08 06:15:37;;;;;;;9.23;1.25;;;12.70;99.90;;;;;;6238331;23;20012;-89
2023/10/08 06:17:33;;;;;;;3.47;0.90;;;12.70;99.90;;;;;;6249870;23;20044;-88
2023/10/08 06:20:09;;;;;;;5.53;1.10;;;12.70;99.90;;;;;;6237894;23;20015;-88
2023/10/08 06:22:36;;;;;;;7.10;0.90;;;12.60;99.90;;;;;;6238454;23;20016;-88
2023/10/08 06:25:17;;;;;;;5.65;1.00;;;12.70;99.90;;;;;;6238500;23;20027;-89
2023/10/08 06:27:46;;;;;;;5.55;1.05;;;12.80;99.90;;;;;;6238480;23;20026;-89
2023/10/08 06:30:16;;;;;;;3.00;0.95;;;12.80;99.90;;;;;;6237931;23;20068;-89
2023/10/08 06:32:48;;;;;;;5.22;1.00;;;12.80;99.90;;;;;;6237834;23;20154;-89
2023/10/08 06:35:17;;;;;;;7.70;1.15;;;12.80;99.90;;;;;;6237793;23;20015;-88
2023/10/08 06:37:49;;;;;;;6.25;1.25;;;12.80;99.90;;;;;;6237823;23;20008;-89
2023/10/08 06:46:07;;;;;;;8.73;1.50;;;12.90;99.90;;;;;;6141802;23;20029;-88
2023/10/08 06:48:34;;;;;;;5.60;1.25;;;12.90;99.90;;;;;;6141983;23;20036;-89
2023/10/08 06:51:07;;;;;;;3.40;0.98;;;12.90;99.90;;;;;;6148420;23;20092;-88
2023/10/08 06:53:34;;;;;;;5.00;1.05;;;13.00;99.90;;;;;;6171776;23;20014;-89
2023/10/08 06:56:04;;;;;;;5.78;1.20;;;13.10;99.90;;;;;;6147449;23;20088;-88
2023/10/08 06:58:34;;;;;;;6.82;1.40;;;13.10;99.90;;;;;;6171691;23;20368;-85
2023/10/08 07:01:04;;;;;;;5.28;0.90;;;13.10;99.90;;;;;;6170713;23;20017;-89
2023/10/08 07:03:33;;;;;;;6.40;1.13;;;13.20;99.90;;;;;;6147367;23;20024;-88
2023/10/08 07:06:16;;;;;;;4.93;1.05;;;13.20;99.90;;;;;;6172027;23;20628;-89
2023/10/08 07:09:05;;;;;;;7.15;1.08;;;13.20;99.90;;;;;;6171007;23;20021;-92
2023/10/08 07:11:42;;;;;;;6.63;1.38;;;12.90;99.90;;;;;;6170846;23;20104;-92
2023/10/08 07:14:33;;;;;;;7.13;1.63;;;13.30;99.90;;;;;;6146181;23;20506;-92
2023/10/08 07:21:29;;;;;;;6.28;1.15;;;13.10;99.90;;;;;;6205908;23;20048;-92
2023/10/08 07:23:57;;;;;;;5.60;1.52;;;13.50;99.90;;;;;;6175808;23;20017;-89
2023/10/08 07:27:09;;;;;;;4.95;1.10;;;13.50;99.90;;;;;;6178574;23;20013;-88
2023/10/08 07:29:41;;;;;;;3.92;1.05;;;13.20;99.90;;;;;;6176090;23;20080;-89
2023/10/08 07:32:21;;;;;;;7.13;1.38;;;13.60;99.90;;;;;;6176205;23;20021;-89
2023/10/08 07:34:57;;;;;;;6.40;1.30;;;13.60;99.90;;;;;;6175751;23;20095;-89
2023/10/08 07:37:44;;;;;;;7.50;1.58;;;13.70;99.90;;;;;;6176235;23;20066;-89
2023/10/08 07:40:13;;;;;;;11.27;1.10;;;13.70;99.90;;;;;;6175976;23;20013;-89
2023/10/08 07:42:45;;;;;;;8.63;1.08;;;13.70;99.90;;;;;;6161123;22;20018;-90
2023/10/08 07:45:50;;;;;;;8.20;1.20;;;13.70;99.90;;;;;;6086440;23;20029;-89
2023/10/08 07:48:29;;;;;;;7.88;1.23;;;13.60;99.90;;;;;;6086644;23;20034;-89
2023/10/08 07:54:53;;;;;;;6.30;1.00;;;13.50;99.90;;;;;;6134779;23;20230;-89
2023/10/08 07:57:30;;;;;;;5.45;1.23;;;13.70;99.90;;;;;;6084763;23;20346;-90
2023/10/08 08:00:24;;;;;;;3.30;1.30;;;13.70;99.90;;;;;;6085594;23;20014;-91
2023/10/08 08:02:57;;;;;;;6.95;1.02;;;13.90;99.90;;;;;;6085402;23;20098;-92
2023/10/08 08:12:08;;;;;;;6.15;1.30;;;13.80;99.90;;;;;;6162963;23;20072;-92
2023/10/08 08:15:14;;;;;;;6.65;1.27;;;13.80;99.90;;;;;;6139252;23;20018;-92
2023/10/08 08:18:32;;;;;;;4.15;1.00;;;13.80;99.90;;;;;;6139005;23;20018;-92
2023/10/08 08:44:20;;;;;;;6.38;1.45;;;14.40;99.90;;;;;;6190263;23;20099;-91
2023/10/08 08:46:47;;;;;;;5.28;1.10;;;14.40;99.90;;;;;;6144612;23;20336;-84
2023/10/08 08:50:06;;;;;;;;;;;;;;;;;;;;;
2023/10/08 08:53:08;;;;;;;9.88;1.20;;;14.40;99.90;;;;;;6144271;23;20515;-93
2023/10/08 09:02:58;;;;;;;12.52;1.83;;;14.10;99.90;;;;;;5963218;24;20041;-90
2023/10/08 09:55:30;;;;;;;7.68;1.42;;;15.50;99.90;;;;;;6288514;22;20498;-93
2023/10/08 09:58:00;;;;;;;5.22;1.15;;;15.50;99.90;;;;;;6238063;23;20453;-93
2023/10/08 10:00:34;;;;;;;5.90;1.05;;;15.50;99.90;;;;;;6238142;23;20022;-92
2023/10/08 10:03:22;;;;;;;9.00;2.35;;;15.50;99.90;;;;;;6287373;23;20012;-94
2023/10/08 10:06:01;;;;;;;5.88;1.42;;;15.50;99.90;;;;;;6238267;23;20019;-94
2023/10/08 10:08:35;;;;;;;10.85;1.60;;;15.60;99.90;;;;;;6238433;23;20012;-94
2023/10/08 10:11:06;;;;;;;4.65;0.98;;;15.50;99.90;;;;;;6237705;23;20040;-93
2023/10/08 10:13:47;;;;;;;7.50;1.35;;;16.10;99.90;;;;;;6238216;23;20008;-93
2023/10/08 10:16:24;;;;;;;7.47;1.27;;;15.60;99.90;;;;;;6237806;23;20012;-92
2023/10/08 10:19:06;;;;;;;9.20;1.85;;;15.40;99.90;;;;;;6238183;23;20126;-94
2023/10/08 10:21:36;;;;;;;7.75;1.30;;;15.60;99.90;;;;;;6237994;23;20020;-93
2023/10/08 10:24:05;;;;;;;5.18;1.15;;;15.60;99.90;;;;;;6237248;23;20020;-92
2023/10/08 10:26:34;;;;;;;10.43;1.45;;;15.50;99.90;;;;;;6238021;23;20346;-92
2023/10/08 10:30:28;;;;;;;;;;;;;;;;;;;;;
2023/10/08 10:33:33;;;;;;;9.07;1.77;;;15.20;99.90;;;;;;6140878;23;20049;-92
2023/10/08 10:36:08;;;;;;;6.18;1.20;;;15.60;99.90;;;;;;6142641;23;20760;-93
2023/10/08 10:38:53;;;;;;;7.45;1.25;;;15.00;99.90;;;;;;6119605;23;20014;-94
2023/10/08 10:41:23;;;;;;;5.03;0.95;;;15.40;99.90;;;;;;6118606;23;20088;-88
2023/10/08 11:03:17;;;;;;;7.75;1.48;;;15.50;99.90;;;;;;6239605;23;20064;-90
2023/10/08 11:05:54;;;;;;;8.15;1.40;;;16.00;99.90;;;;;;6177486;23;20021;-89
2023/10/08 11:08:24;;;;;;;3.92;1.00;;;16.00;99.90;;;;;;6202181;23;20336;-89
2023/10/08 11:10:55;;;;;;;6.57;1.00;;;16.00;99.90;;;;;;6202151;23;20439;-90
2023/10/08 11:13:37;;;;;;;6.50;1.20;;;16.00;99.90;;;;;;6202705;23;20017;-89
2023/10/08 11:16:05;;;;;;;6.78;1.27;;;16.10;99.90;;;;;;6177797;23;20013;-90
2023/10/08 11:18:32;;;;;;;6.60;1.40;;;16.10;99.90;;;;;;6178270;23;20506;-89
2023/10/08 11:21:18;;;;;;;9.35;1.65;;;16.10;99.90;;;;;;6177369;23;20364;-89
2023/10/08 11:24:08;;;;;;;3.88;1.17;;;16.10;99.90;;;;;;6177461;23;20016;-90
2023/10/08 11:26:39;;;;;;;5.47;1.30;;;16.10;99.90;;;;;;6177647;23;20712;-89
2023/10/08 11:44:23;;;;;;;5.40;1.30;;;16.00;99.90;;;;;;6250139;22;20027;-89
2023/10/08 11:46:51;;;;;;;5.45;1.23;;;16.00;99.90;;;;;;6237417;23;20451;-89
2023/10/08 11:49:19;;;;;;;4.60;1.10;;;16.00;99.90;;;;;;6238870;23;20064;-89
2023/10/08 11:51:47;;;;;;;7.80;1.33;;;16.00;99.90;;;;;;6239648;23;20134;-89
2023/10/08 11:54:16;;;;;;;8.75;1.13;;;16.10;99.90;;;;;;6239869;23;20444;-89
2023/10/08 12:04:22;;;;;;;6.55;1.20;;;16.10;99.90;;;;;;6168054;23;20029;-90
2023/10/08 12:06:52;;;;;;;6.88;1.33;;;16.20;99.90;;;;;;6143872;23;20434;-89
2023/10/08 12:09:27;;;;;;;6.30;1.20;;;16.30;99.90;;;;;;6143913;23;20014;-89
2023/10/08 12:15:44;;;;;;;5.05;1.10;;;16.10;99.90;;;;;;6052363;23;20018;-89
2023/10/08 12:18:15;;;;;;;12.65;1.40;;;16.30;99.90;;;;;;6005822;23;20364;-89
2023/10/08 12:25:00;;;;;;;7.18;1.30;;;16.00;99.90;;;;;;5968209;24;20081;-89
2023/10/08 12:27:30;;;;;;;7.50;1.17;;;16.40;99.90;;;;;;5923322;24;20054;-89
2023/10/08 12:38:14;;;;;;;9.65;2.95;;;16.50;99.90;;;;;;5947640;24;20015;-89
2023/10/08 12:40:52;;;;;;;4.22;1.25;;;16.40;99.90;;;;;;5945123;24;20020;-89
2023/10/08 12:43:20;;;;;;;7.25;1.33;;;16.50;99.90;;;;;;5947024;24;20491;-89
2023/10/08 12:45:53;;;;;;;8.20;1.58;;;16.50;99.90;;;;;;5995392;24;20021;-89
2023/10/08 12:55:28;;;;;;;6.07;1.27;;;16.50;99.90;;;;;;6052192;23;20023;-89
2023/10/08 12:58:09;;;;;;;6.30;1.40;;;16.50;99.90;;;;;;6028350;23;20474;-89
2023/10/08 13:00:41;;;;;;;4.78;0.85;;;16.80;99.90;;;;;;6148049;23;20021;-90
2023/10/08 13:29:18;;;;;;;6.13;1.27;;;16.30;99.90;;;;;;6166296;23;20005;-89
2023/10/08 13:36:29;;;;;;;10.85;1.52;;;16.00;99.90;;;;;;6137990;23;20066;-89
2023/10/08 13:38:56;;;;;;;4.45;1.13;;;15.90;99.90;;;;;;6114183;23;20018;-89
2023/10/08 13:41:29;;;;;;;7.93;2.20;;;16.30;99.90;;;;;;6089903;23;20014;-89
2023/10/08 14:08:14;;;;;;;4.80;1.48;;;16.50;99.90;;;;;;6197265;23;20036;-93
2023/10/08 14:21:55;;;;;;;18.80;8.65;;;15.90;99.90;;;;;;6259459;23;20031;-92
2023/10/08 14:24:26;;;;;;;5.20;1.70;;;16.10;99.90;;;;;;6208838;23;20013;-92
2023/10/08 14:26:56;;;;;;;14.38;5.47;;;16.00;99.90;;;;;;6208230;23;20013;-93
2023/10/08 14:29:26;;;;;;;5.55;2.10;;;15.90;99.90;;;;;;6208096;23;20008;-92
2023/10/08 14:31:56;;;;;;;6.85;2.08;;;15.80;99.90;;;;;;6208398;23;20344;-93
2023/10/08 14:42:55;;;;;;;7.60;2.00;;;15.70;99.90;;;;;;6232246;23;20052;-92
2023/10/08 14:45:26;;;;;;;5.93;1.67;;;15.20;99.90;;;;;;6207512;23;20020;-93
2023/10/08 14:47:54;;;;;;;6.95;2.13;;;15.70;99.90;;;;;;6207868;23;20048;-91
2023/10/08 14:50:31;;;;;;;6.05;1.30;;;15.70;99.90;;;;;;6207823;23;20086;-92
2023/10/08 14:53:00;;;;;;;7.93;3.03;;;15.70;99.90;;;;;;6207397;23;20617;-91
2023/10/08 14:55:27;;;;;;;8.38;2.20;;;15.80;99.90;;;;;;6208032;23;20455;-89
2023/10/08 14:57:55;;;;;;;5.53;1.83;;;15.90;99.90;;;;;;6207882;23;20008;-93
2023/10/08 15:00:26;;;;;;;6.45;1.40;;;15.90;99.90;;;;;;6208443;23;20447;-95
2023/10/08 15:02:54;;;;;;;9.10;3.00;;;15.80;99.90;;;;;;6207651;23;20013;-90
2023/10/08 15:05:24;;;;;;;6.93;2.30;;;15.80;99.90;;;;;;6207866;23;20020;-91
2023/10/08 15:08:00;;;;;;;7.13;1.33;;;15.80;99.90;;;;;;6207453;23;20012;-91
2023/10/08 15:10:27;;;;;;;6.63;1.40;;;15.70;99.90;;;;;;6207894;23;20074;-92
2023/10/08 15:12:53;;;;;;;4.07;1.10;;;15.70;99.90;;;;;;6207622;23;20013;-93
2023/10/08 15:15:24;;;;;;;12.68;1.50;;;15.70;99.90;;;;;;6208422;23;20064;-93
2023/10/08 15:18:07;;;;;;;5.53;1.83;;;15.70;99.90;;;;;;6208326;23;20076;-92
2023/10/08 15:21:15;;;;;;;6.22;1.33;;;15.70;99.90;;;;;;6166427;23;20052;-92
2023/10/08 15:23:42;;;;;;;9.00;1.23;;;15.40;99.90;;;;;;6117614;23;20069;-93
2023/10/08 15:26:10;;;;;;;5.95;1.20;;;15.70;99.90;;;;;;6118930;23;20141;-92
2023/10/08 15:28:37;;;;;;;4.97;1.35;;;15.60;99.90;;;;;;6118120;23;20017;-93
2023/10/08 15:31:14;;;;;;;6.60;1.25;;;15.60;99.90;;;;;;6117905;23;20021;-94
2023/10/08 15:33:41;;;;;;;4.28;1.10;;;15.60;99.90;;;;;;6118135;23;20729;-90
2023/10/08 15:36:11;;;;;;;7.90;1.30;;;15.50;99.90;;;;;;6118263;23;20020;-92
2023/10/08 15:38:41;;;;;;;11.75;1.50;;;15.50;99.90;;;;;;6118298;23;20010;-93
2023/10/08 15:41:13;;;;;;;8.20;1.55;;;15.40;99.90;;;;;;6117386;23;20052;-92
2023/10/08 15:43:58;;;;;;;7.97;1.92;;;15.40;99.90;;;;;;6130875;23;20070;-92
2023/10/08 15:46:43;;;;;;;5.90;1.20;;;15.40;99.90;;;;;;6177172;23;20108;-93
2023/10/08 15:49:34;;;;;;;6.53;1.35;;;15.30;99.90;;;;;;6176204;23;20296;-93
2023/10/08 15:52:01;;;;;;;8.02;1.23;;;15.30;99.90;;;;;;6217838;23;20466;-92
2023/10/08 15:54:28;;;;;;;8.52;2.00;;;15.20;99.90;;;;;;6237153;23;20023;-92
2023/10/08 16:01:06;;;;;;;5.18;1.20;;;15.20;99.90;;;;;;6289075;23;20019;-93
2023/10/08 16:03:43;;;;;;;6.55;1.48;;;15.00;99.90;;;;;;6237463;23;20019;-93
2023/10/08 16:13:24;;;;;;;8.05;2.38;;;14.90;99.90;;;;;;6171664;23;20022;-93
2023/10/08 16:15:53;;;;;;;11.45;3.60;;;14.80;99.90;;;;;;6147206;23;20080;-92
2023/10/08 16:18:23;;;;;;;13.10;3.75;;;14.80;99.90;;;;;;6147485;23;20482;-93
2023/10/08 16:20:53;;;;;;;10.38;2.72;;;14.80;99.90;;;;;;6147202;23;20021;-91
2023/10/08 16:23:29;;;;;;;5.50;1.45;;;14.70;99.90;;;;;;6147228;23;20028;-91
2023/10/08 16:25:56;;;;;;;6.63;1.42;;;14.70;99.90;;;;;;6146659;23;20740;-93
2023/10/08 16:28:23;;;;;;;7.13;1.38;;;14.60;99.90;;;;;;6147192;23;20052;-93
2023/10/08 16:30:53;;;;;;;6.43;1.30;;;14.70;99.90;;;;;;6146912;23;20025;-91
2023/10/08 16:33:24;;;;;;;6.32;1.50;;;14.70;99.90;;;;;;6147175;23;20017;-92
2023/10/08 16:35:51;;;;;;;7.25;1.50;;;14.60;99.90;;;;;;6147944;23;20096;-93
2023/10/08 16:38:19;;;;;;;6.63;1.50;;;14.80;99.90;;;;;;6148642;23;20013;-92
2023/10/08 16:40:46;;;;;;;6.18;1.40;;;14.70;99.90;;;;;;6148762;23;20100;-91
2023/10/08 17:28:18;;;;;;;6.07;1.60;;;14.20;99.90;;;;;;6161856;23;20062;-86
2023/10/08 17:30:52;;;;;;;3.85;1.10;;;14.10;99.90;;;;;;6114541;23;20018;-87
2023/10/08 17:33:21;;;;;;;6.13;1.30;;;14.20;99.90;;;;;;6114981;23;20140;-86
2023/10/08 17:35:48;;;;;;;7.10;1.40;;;14.10;99.90;;;;;;6114820;23;20014;-87
2023/10/08 17:38:16;;;;;;;5.82;1.80;;;14.20;99.90;;;;;;6115514;23;20380;-87
2023/10/08 17:40:44;;;;;;;7.82;2.08;;;14.20;99.90;;;;;;6139079;23;20024;-87
2023/10/08 17:43:11;;;;;;;8.15;2.53;;;14.10;99.90;;;;;;6114121;23;20025;-87
2023/10/08 17:45:40;;;;;;;5.82;1.77;;;14.00;99.90;;;;;;6114869;23;20829;-87
2023/10/08 17:48:10;;;;;;;6.10;1.40;;;14.10;99.90;;;;;;6114920;23;20539;-87
2023/10/08 17:50:38;;;;;;;6.47;1.20;;;14.00;99.90;;;;;;6115105;23;20044;-87
2023/10/08 17:53:06;;;;;;;4.82;1.50;;;14.00;99.90;;;;;;6114820;23;20041;-87
2023/10/08 17:55:35;;;;;;;9.57;1.70;;;14.00;99.90;;;;;;6114356;23;20014;-85
2023/10/08 17:58:03;;;;;;;5.47;1.70;;;14.00;99.90;;;;;;6113774;23;20014;-83
2023/10/08 18:00:33;;;;;;;5.82;1.63;;;14.00;99.90;;;;;;6114670;23;20452;-85
2023/10/08 18:25:37;;;;;;;8.80;2.00;;;13.50;99.90;;;;;;6135420;23;20029;-87
2023/10/08 18:28:04;;;;;;;6.88;1.45;;;13.70;99.90;;;;;;6112581;23;20034;-87
2023/10/08 18:30:31;;;;;;;7.40;1.80;;;13.70;99.90;;;;;;6088115;23;20097;-86
2023/10/08 18:32:59;;;;;;;8.98;2.15;;;13.70;99.90;;;;;;6088371;23;20063;-89
2023/10/08 18:35:26;;;;;;;7.53;3.15;;;13.70;99.90;;;;;;6087804;23;20022;-89
2023/10/08 18:37:59;;;;;;;11.55;2.63;;;13.70;99.90;;;;;;6087453;23;20010;-88
2023/10/08 18:49:29;;;;;;;7.35;3.00;;;13.60;99.90;;;;;;6148117;23;20088;-88
2023/10/08 18:59:27;;;;;;;8.65;2.38;;;13.50;99.90;;;;;;6073159;23;20014;-88
2023/10/08 19:01:54;;;;;;;8.23;2.50;;;13.40;99.90;;;;;;6026906;23;20531;-88
2023/10/08 19:08:23;;;;;;;9.15;1.90;;;13.20;99.90;;;;;;6017455;24;20538;-90
2023/10/08 19:10:54;;;;;;;7.47;2.05;;;13.50;99.90;;;;;;5971419;23;20876;-94
2023/10/08 19:13:59;;;;;;;7.85;1.90;;;13.50;99.90;;;;;;5994229;24;20020;-93
2023/10/08 19:20:08;;;;;;;9.10;2.60;;;13.10;99.90;;;;;;6016984;24;20080;-87
2023/10/08 19:22:37;;;;;;;6.35;2.00;;;13.40;99.90;;;;;;5970538;23;20020;-85
2023/10/08 19:25:04;;;;;;;6.10;1.55;;;13.50;99.90;;;;;;5969199;23;20111;-83
2023/10/08 19:27:31;;;;;;;7.60;1.80;;;13.50;99.90;;;;;;5970458;23;20024;-83
2023/10/08 19:29:58;;;;;;;9.32;2.05;;;13.50;99.90;;;;;;5970728;23;20063;-90
2023/10/08 19:32:41;;;;;;;9.95;2.17;;;13.50;99.90;;;;;;6063837;23;20019;-93
2023/10/08 19:35:10;;;;;;;8.40;2.33;;;13.50;99.90;;;;;;6085291;23;20011;-93
2023/10/08 19:37:37;;;;;;;8.80;2.45;;;13.50;99.90;;;;;;6095823;23;20155;-93
2023/10/08 19:40:10;;;;;;;13.18;2.30;;;13.50;99.90;;;;;;6138711;23;20010;-93
2023/10/08 19:42:39;;;;;;;8.35;2.08;;;13.50;99.90;;;;;;6138412;23;20025;-91
2023/10/08 19:45:17;;;;;;;9.40;1.75;;;13.40;99.90;;;;;;6139357;23;20073;-93
2023/10/08 19:47:45;;;;;;;7.43;1.98;;;13.40;99.90;;;;;;6138936;23;20018;-92
2023/10/08 19:50:16;;;;;;;11.40;2.20;;;13.50;99.90;;;;;;6138836;23;20022;-86
2023/10/08 19:52:44;;;;;;;5.30;1.85;;;13.50;99.90;;;;;;6137746;23;20014;-87
2023/10/08 19:55:13;;;;;;;9.70;1.95;;;13.40;99.90;;;;;;6138684;23;20014;-88